AirNav   Air Wisconsin pilot careers
 
 1316 users online  

T60 Stonewall County Airport
Aspermont, Texas, USA


FAA INFORMATION EFFECTIVE 09 NOVEMBER 2017

Location

FAA Identifier: T60
Lat/Long: 33-10-13.2250N / 100-11-50.1900W
33-10.220417N / 100-11.836500W
33.1703403 / -100.1972750
(estimated)
Elevation: 1744 ft. / 532 m (estimated)
Variation: 08E (1986)
From city: 1 mile NE of ASPERMONT, TX
Time zone: UTC -6 (UTC -5 during Daylight Saving Time)
Zip code: 79502

Airport Operations

Airport use: Open to the public
Activation date: 04/1986
Control tower: no
ARTCC: FORT WORTH CENTER
FSS: FORT WORTH FLIGHT SERVICE STATION
NOTAMs facility: FTW (NOTAM-D service available)
Attendance: UNATNDD
Wind indicator: lighted
Segmented circle: yes
Lights: SS-SR
Beacon: white-green (lighted land airport)
Operates sunset to sunrise.

Airport Communications

CTAF: 122.9

Nearby radio navigation aids

VOR radial/distance  VOR name  Freq  Var
GTHr159/37.1GUTHRIE VORTAC114.5010E

Airport Services

Parking: tiedowns

Runway Information

Runway 17/35

Dimensions: 4000 x 60 ft. / 1219 x 18 m
Surface: asphalt, in good condition
Weight bearing capacity: 
Single wheel: 12.5
Runway edge lights: medium intensity
Gradient: S.
RUNWAY 17  RUNWAY 35
Latitude: 33-10.550000N33-09.890833N
Longitude: 100-11.829667W100-11.843333W
Elevation: 1715.0 ft.1744.0 ft.
Gradient: 0.7% UP
Traffic pattern: leftleft
Runway heading: 173 magnetic, 181 true353 magnetic, 001 true
Markings: nonprecision, in good conditionnonprecision, in fair condition
Obstructions: 10 ft. trees, 483 ft. from runway, 28:1 slope to clear20 ft. pline, marked, 895 ft. from runway, 34:1 slope to clear

Airport Ownership and Management from official FAA records

Ownership: Publicly-owned
Owner: STONEWALL COUNTY
PO BOX 366
ASPERMONT, TX 79502
Phone 940-989-3393
Manager: RONNIE MOORHEAD
PO BOX 366
ASPERMONT, TX 79502
Phone 940-989-3393
EMERGENCY PHONE: (940) 989-3333; 940-200-0894

Airport Operational Statistics

Aircraft operations: avg 33/month *
100% transient general aviation
* for 12-month period ending 26 May 2015

Additional Remarks

ACCESS KEY TO ARPT AT COUNTY COURTHOUSE.
AGRICULTURAL ACTIVITY MAY-SEP AT ARPT.

Instrument Procedures

There are no published instrument procedures at T60.

Some nearby airports with instrument procedures:

15F - Haskell Municipal Airport (24 nm E)
F56 - Arledge Field Airport (28 nm SE)
KSWW - Avenger Field Airport (44 nm S)
KSNK - Winston Field Airport (48 nm SW)
KDYS - Dyess Air Force Base (48 nm S)
 
Loc | Ops | Rwys | IFR | FBO | Links
Com | Nav | Svcs | Stats | Notes


 
Area around T60 (Stonewall County Airport)
 
Road maps at: MapQuest Bing Google
 
Aerial photo
WARNING: Photo may not be current or correct
Aerial photo of T60 (Stonewall County Airport)
Photo courtesy TX DOT
As seen circa 1998

Do you have a better or more recent aerial photo of Stonewall County Airport that you would like to share? If so, please send us your photo.

 
Sectional chart

 
Airport distance calculator
Flying to Stonewall County Airport? Find the distance to fly.

From to T60

Sunrise and sunset
Times for 22-Nov-2017
 Local
(UTC-6)
 Zulu
(UTC)
Morning civil twilight06:5312:53
Sunrise07:1913:19
Sunset17:3523:35
Evening civil twilight18:0100:01

Current date and time
Zulu (UTC)  22-Nov-2017 15:22:18
Local (UTC-6)  22-Nov-2017 09:22:18
 
METAR
KSWW 
44nm S 
221455Z AUTO 02006KT 10SM CLR 04/M07 A3046 RMK AO2 T00431071
KSNK 
48nm SW 
221455Z AUTO 03006KT 10SM CLR 03/M04 A3045 RMK AO2 T00311044
KDYS 
49nm S 
221456Z AUTO 03006KT 10SM CLR 05/M05 A3043 RMK AO2 SLP303 T00451050 50006 $
TAF
KDYS 
49nm S 
221329Z 2213/2315 36009KT 9999 SKC QNH3017INS TEMPO 2214/2217 36012G18KT BECMG 2223/2224 17006KT 9999 SKC QNH3015INS TX12/2221Z TN00/2213Z
NOTAMs
Click for the latest NOTAMs
NOTAMs are issued by the DoD/FAA and will open in a separate window not controlled by AirNav.

 

 
 

Would you like to see your business listed on this page?

 If your business provides an interesting product or service to pilots, flight crews, aircraft, or users of the Stonewall County Airport, you should consider listing it here.  To start the listing process, click on the button below
 
Add a business
 

Other Pages about Stonewall County Airport

Update a link
 
Copyright © AirNav, LLC. All rights reserved. Privacy Policy  Contact